createdAt,value
2022-12-17T00:01:04.693Z,0.30
2022-12-17T00:03:51.064Z,0.30
2022-12-17T00:06:48.484Z,0.40
2022-12-17T00:09:33.812Z,0.40
2022-12-17T00:12:19.047Z,0.40
2022-12-17T00:15:04.640Z,0.40
2022-12-17T00:17:50.008Z,0.30
2022-12-17T00:20:35.568Z,0.30
2022-12-17T00:23:22.982Z,0.30
2022-12-17T00:26:12.621Z,0.30
2022-12-17T00:28:58.166Z,0.30
2022-12-17T00:31:45.889Z,0.30
2022-12-17T00:34:31.897Z,0.40
2022-12-17T00:37:17.313Z,0.50
2022-12-17T00:40:02.793Z,0.30
2022-12-17T00:42:48.145Z,0.40
2022-12-17T00:45:33.649Z,0.30
2022-12-17T00:48:19.183Z,0.40
2022-12-17T00:51:04.606Z,0.30
2022-12-17T00:53:50.028Z,0.30
2022-12-17T00:56:35.400Z,0.30
2022-12-17T00:59:20.800Z,0.40
2022-12-17T01:02:06.551Z,0.30
2022-12-17T01:04:52.169Z,0.20
2022-12-17T01:07:37.823Z,0.20
2022-12-17T01:10:23.686Z,0.20
2022-12-17T01:13:09.437Z,0.20
2022-12-17T01:15:55.489Z,0.20
2022-12-17T01:18:49.768Z,0.20
2022-12-17T01:21:35.113Z,0.20
2022-12-17T01:24:20.540Z,0.20
2022-12-17T01:27:06.170Z,0.20
2022-12-17T01:29:51.556Z,0.20
2022-12-17T01:32:36.675Z,0.20
2022-12-17T01:35:22.131Z,0.20
2022-12-17T01:38:07.759Z,0.20
2022-12-17T01:40:53.322Z,0.10
2022-12-17T01:43:54.154Z,0.00
2022-12-17T01:46:41.165Z,0.00
2022-12-17T01:49:27.967Z,0.00
2022-12-17T01:52:14.084Z,0.00
2022-12-17T01:54:59.856Z,0.00
2022-12-17T01:57:46.189Z,0.00
2022-12-17T02:00:34.521Z,0.00
2022-12-17T02:03:20.024Z,-0.10
2022-12-17T02:06:33.907Z,0.00
2022-12-17T02:09:39.728Z,0.00
2022-12-17T02:13:20.819Z,-0.10
2022-12-17T02:16:11.920Z,-0.10
2022-12-17T02:19:21.736Z,-0.20
2022-12-17T02:22:15.248Z,-0.20
2022-12-17T02:28:01.884Z,0.00
2022-12-17T02:30:48.868Z,0.00
2022-12-17T02:33:35.636Z,-0.10
2022-12-17T02:36:25.696Z,-0.20
2022-12-17T02:39:11.218Z,-0.10
2022-12-17T02:42:04.946Z,-0.10
2022-12-17T02:44:51.832Z,-0.20
2022-12-17T02:47:38.516Z,-0.20
2022-12-17T02:50:25.271Z,-0.20
2022-12-17T02:53:11.171Z,-0.20
2022-12-17T02:55:56.844Z,-0.10
2022-12-17T02:58:42.038Z,-0.20
2022-12-17T03:01:27.629Z,-0.20
2022-12-17T03:04:12.999Z,-0.20
2022-12-17T03:06:58.440Z,-0.20
2022-12-17T03:09:44.052Z,-0.20
2022-12-17T03:12:29.511Z,-0.30
2022-12-17T03:15:15.049Z,-0.30
2022-12-17T03:18:00.569Z,-0.40
2022-12-17T03:20:46.041Z,-0.20
2022-12-17T03:23:31.920Z,-0.20
2022-12-17T03:26:19.571Z,-0.30
2022-12-17T03:29:05.696Z,-0.20
2022-12-17T03:31:51.596Z,-0.30
2022-12-17T03:34:37.119Z,-0.30
2022-12-17T03:37:22.434Z,-0.20
2022-12-17T03:40:07.943Z,-0.30
2022-12-17T03:42:53.516Z,-0.40
2022-12-17T03:45:39.133Z,-0.40
2022-12-17T03:48:32.683Z,-0.40
2022-12-17T03:51:19.360Z,-0.40
2022-12-17T03:54:05.853Z,-0.30
2022-12-17T03:56:52.853Z,-0.40
2022-12-17T03:59:38.466Z,-0.40
2022-12-17T04:02:24.086Z,-0.40
2022-12-17T04:05:13.850Z,-0.40
2022-12-17T04:08:02.371Z,-0.50
2022-12-17T04:10:47.850Z,-0.50
2022-12-17T04:13:38.781Z,-0.60
2022-12-17T04:16:25.890Z,-0.60
2022-12-17T04:19:11.402Z,-0.50
2022-12-17T04:21:56.815Z,-0.50
2022-12-17T04:24:42.162Z,-0.70
2022-12-17T04:27:32.081Z,-0.80
2022-12-17T04:30:17.438Z,-0.80
2022-12-17T04:33:02.961Z,-0.80
2022-12-17T04:35:48.351Z,-0.70
2022-12-17T04:38:33.879Z,-0.80
2022-12-17T04:41:18.922Z,-0.80
2022-12-17T04:44:04.555Z,-0.80
2022-12-17T04:46:50.241Z,-0.70
2022-12-17T04:49:35.601Z,-0.80
2022-12-17T04:52:20.967Z,-0.80
2022-12-17T04:55:06.143Z,-0.80
2022-12-17T04:57:51.864Z,-0.80
2022-12-17T05:00:37.421Z,-0.80
2022-12-17T05:03:26.525Z,-0.80
2022-12-17T05:06:11.929Z,-0.80
2022-12-17T05:08:57.472Z,-0.80
2022-12-17T05:11:43.368Z,-0.80
2022-12-17T05:14:28.833Z,-0.80
2022-12-17T05:17:14.400Z,-0.90
2022-12-17T05:19:59.684Z,-0.90
2022-12-17T05:22:44.858Z,-0.80
2022-12-17T05:28:02.180Z,-0.80
2022-12-17T05:30:47.757Z,-0.80
2022-12-17T05:33:33.926Z,-0.90
2022-12-17T05:36:20.357Z,-0.90
2022-12-17T05:39:08.416Z,-0.80
2022-12-17T05:41:53.823Z,-0.80
2022-12-17T05:44:39.326Z,-0.90
2022-12-17T05:47:24.928Z,-0.80
2022-12-17T05:50:10.317Z,-0.80
2022-12-17T05:52:55.874Z,-0.90
2022-12-17T05:55:41.863Z,-0.80
2022-12-17T05:58:29.488Z,-0.80
2022-12-17T06:01:16.849Z,-0.90
2022-12-17T06:04:02.808Z,-0.90
2022-12-17T06:06:48.228Z,-1.10
2022-12-17T06:09:33.874Z,-1.10
2022-12-17T06:12:19.306Z,-1.00
2022-12-17T06:15:04.856Z,-0.90
2022-12-17T06:17:50.524Z,-0.80
2022-12-17T06:20:36.338Z,-0.80
2022-12-17T06:23:27.571Z,-0.90
2022-12-17T06:26:14.703Z,-0.90
2022-12-17T06:29:01.174Z,-0.80
2022-12-17T06:31:46.967Z,-0.90
2022-12-17T06:34:32.319Z,-0.80
2022-12-17T06:37:17.959Z,-0.80
2022-12-17T06:40:03.116Z,-0.90
2022-12-17T06:42:48.716Z,-0.80
2022-12-17T06:45:34.288Z,-0.80
2022-12-17T06:48:27.469Z,-0.80
2022-12-17T06:51:15.591Z,-0.80
2022-12-17T06:54:01.203Z,-0.90
2022-12-17T06:56:46.732Z,-0.80
2022-12-17T06:59:32.261Z,-0.80
2022-12-17T07:02:18.067Z,-0.90
2022-12-17T07:05:03.616Z,-0.80
2022-12-17T07:07:49.241Z,-0.70
2022-12-17T07:10:34.578Z,-0.70
2022-12-17T07:13:27.321Z,-0.60
2022-12-17T07:16:13.913Z,-0.60
2022-12-17T07:18:59.615Z,-0.60
2022-12-17T07:21:45.486Z,-0.70
2022-12-17T07:24:31.007Z,-0.70
2022-12-17T07:27:16.413Z,-0.70
2022-12-17T07:30:01.869Z,-0.80
2022-12-17T07:32:47.490Z,-0.80
2022-12-17T07:35:33.349Z,-0.90
2022-12-17T07:38:20.156Z,-0.90
2022-12-17T07:41:05.382Z,-1.00
2022-12-17T07:43:53.120Z,-1.00
2022-12-17T07:46:39.487Z,-1.00
2022-12-17T07:49:26.225Z,-0.90
2022-12-17T07:52:12.189Z,-0.90
2022-12-17T07:54:57.819Z,-0.90
2022-12-17T07:57:44.067Z,-0.90
2022-12-17T08:00:30.589Z,-1.00
2022-12-17T08:03:17.770Z,-1.00
2022-12-17T08:06:03.918Z,-1.00
2022-12-17T08:08:49.501Z,-0.80
2022-12-17T08:11:35.144Z,-0.80
2022-12-17T08:14:20.506Z,-0.80
2022-12-17T08:17:05.977Z,-0.90
2022-12-17T08:19:51.331Z,-0.90
2022-12-17T08:22:36.416Z,-0.90
2022-12-17T08:28:07.373Z,-0.90
2022-12-17T08:30:56.175Z,-0.90
2022-12-17T08:33:41.508Z,-0.80
2022-12-17T08:36:28.106Z,-0.90
2022-12-17T08:39:13.662Z,-0.80
2022-12-17T08:42:04.090Z,-0.80
2022-12-17T08:44:50.041Z,-0.80
2022-12-17T08:47:35.444Z,-0.70
2022-12-17T08:50:20.897Z,-0.80
2022-12-17T08:53:06.348Z,-0.70
2022-12-17T08:55:51.842Z,-0.70
2022-12-17T08:58:37.234Z,-0.70
2022-12-17T09:01:22.791Z,-0.70
2022-12-17T09:04:07.992Z,-0.60
2022-12-17T09:06:53.165Z,-0.60
2022-12-17T09:09:38.586Z,-0.60
2022-12-17T09:12:24.102Z,-0.60
2022-12-17T09:15:09.455Z,-0.60
2022-12-17T09:17:55.040Z,-0.60
2022-12-17T09:20:40.427Z,-0.60
2022-12-17T09:23:25.881Z,-0.50
2022-12-17T09:26:20.563Z,-0.40
2022-12-17T09:29:06.361Z,-0.50
2022-12-17T09:31:52.164Z,-0.50
2022-12-17T09:34:37.930Z,-0.40
2022-12-17T09:37:23.180Z,-0.40
2022-12-17T09:40:08.534Z,-0.40
2022-12-17T09:43:19.250Z,-0.40
2022-12-17T09:46:25.701Z,-0.50
2022-12-17T09:49:27.958Z,-0.50
2022-12-17T09:52:13.530Z,-0.40
2022-12-17T09:55:04.879Z,-0.50
2022-12-17T09:57:53.438Z,-0.50
2022-12-17T10:00:42.466Z,-0.50
2022-12-17T10:03:33.668Z,-0.40
2022-12-17T10:06:31.593Z,-0.40
2022-12-17T10:09:28.458Z,-0.50
2022-12-17T10:12:15.661Z,-0.50
2022-12-17T10:15:00.896Z,-0.40
2022-12-17T10:17:46.348Z,-0.40
2022-12-17T10:21:00.645Z,-0.50
2022-12-17T10:23:48.527Z,-0.40
2022-12-17T10:26:38.594Z,-0.50
2022-12-17T10:29:36.595Z,-0.50
2022-12-17T10:32:40.055Z,-0.60
2022-12-17T10:35:36.632Z,-0.60
2022-12-17T10:38:48.887Z,-0.50
2022-12-17T10:41:41.631Z,-0.60
2022-12-17T10:45:09.403Z,-0.50
2022-12-17T10:47:54.584Z,-0.50
2022-12-17T10:50:42.210Z,-0.40
2022-12-17T10:53:38.722Z,-0.40
2022-12-17T10:56:24.810Z,-0.30
2022-12-17T10:59:12.768Z,-0.30
2022-12-17T11:01:58.875Z,-0.40
2022-12-17T11:04:51.549Z,-0.50
2022-12-17T11:07:52.692Z,-0.50
2022-12-17T11:10:49.052Z,-0.50
2022-12-17T11:13:51.967Z,-0.30
2022-12-17T11:16:46.539Z,-0.30
2022-12-17T11:19:32.008Z,-0.40
2022-12-17T11:22:56.553Z,-0.50
2022-12-17T11:26:03.761Z,-0.40
2022-12-17T11:28:52.973Z,-0.40
2022-12-17T11:32:05.466Z,-0.40
2022-12-17T11:34:50.996Z,-0.40
2022-12-17T11:37:41.417Z,-0.50
2022-12-17T11:40:54.953Z,-0.40
2022-12-17T11:44:07.536Z,-0.50
2022-12-17T11:47:21.900Z,-0.60
2022-12-17T11:50:43.723Z,-0.60
2022-12-17T11:53:34.753Z,-0.50
2022-12-17T11:56:49.112Z,-0.70
2022-12-17T11:59:54.261Z,-0.60
2022-12-17T12:02:54.155Z,-0.70
2022-12-17T12:05:56.460Z,-0.70
2022-12-17T12:08:57.131Z,-0.70
2022-12-17T12:11:56.981Z,-0.70
2022-12-17T12:15:16.392Z,-0.70
2022-12-17T12:18:11.421Z,-0.60
2022-12-17T12:21:06.002Z,-0.60
2022-12-17T12:24:12.900Z,-0.50
2022-12-17T12:27:22.999Z,-0.60
2022-12-17T12:30:17.982Z,-0.70
2022-12-17T12:33:41.329Z,-0.70
2022-12-17T12:36:31.168Z,-0.90
2022-12-17T12:39:16.939Z,-0.90
2022-12-17T12:42:18.030Z,-0.90
2022-12-17T12:45:26.015Z,-0.80
2022-12-17T12:48:22.568Z,-0.70
2022-12-17T12:51:19.142Z,-0.70
2022-12-17T12:54:18.866Z,-0.70
2022-12-17T12:57:10.165Z,-0.70
2022-12-17T13:00:05.164Z,-0.80
2022-12-17T13:02:59.424Z,-1.00
2022-12-17T13:05:47.060Z,-1.00
2022-12-17T13:08:19.439Z,-1.00
2022-12-17T13:10:47.669Z,-1.00
2022-12-17T13:13:36.837Z,-1.00
2022-12-17T13:16:21.992Z,-1.10
2022-12-17T13:18:49.008Z,-1.10
2022-12-17T13:21:15.932Z,-1.20
2022-12-17T13:23:43.793Z,-1.20
2022-12-17T13:26:30.303Z,-1.20
2022-12-17T13:29:31.654Z,-1.20
2022-12-17T13:32:07.356Z,-1.20
2022-12-17T13:34:45.516Z,-1.20
2022-12-17T13:37:15.048Z,-1.30
2022-12-17T13:40:05.072Z,-1.30
2022-12-17T13:42:35.255Z,-1.40
2022-12-17T13:45:02.963Z,-1.50
2022-12-17T13:47:33.302Z,-1.60
2022-12-17T13:52:48.915Z,-1.50
2022-12-17T13:55:27.162Z,-1.50
2022-12-17T13:57:54.462Z,-1.60
2022-12-17T14:00:24.102Z,-1.60
2022-12-17T14:02:52.114Z,-1.50
2022-12-17T14:05:46.100Z,-1.50
2022-12-17T14:08:17.831Z,-1.50
2022-12-17T14:10:50.686Z,-1.60
2022-12-17T14:13:18.125Z,-1.70
2022-12-17T14:15:51.240Z,-1.80
2022-12-17T14:18:20.950Z,-1.70
2022-12-17T14:20:49.358Z,-1.70
2022-12-17T14:23:27.236Z,-1.80
2022-12-17T14:25:54.656Z,-1.70
2022-12-17T14:28:31.686Z,-1.70
2022-12-17T14:31:29.036Z,-1.80
2022-12-17T14:34:13.928Z,-1.80
2022-12-17T14:36:42.679Z,-1.80
2022-12-17T14:39:22.966Z,-1.80
2022-12-17T14:42:08.307Z,-1.70
2022-12-17T14:44:37.647Z,-1.80
2022-12-17T14:47:18.984Z,-1.80
2022-12-17T14:50:06.790Z,-1.80
2022-12-17T14:52:41.029Z,-1.70
2022-12-17T14:55:23.409Z,-1.80
2022-12-17T14:58:07.785Z,-1.90
2022-12-17T15:00:41.137Z,-2.00
2022-12-17T15:03:22.071Z,-2.00
2022-12-17T15:06:08.971Z,-2.00
2022-12-17T15:08:50.432Z,-2.20
2022-12-17T15:11:20.229Z,-2.10
2022-12-17T15:13:50.331Z,-2.10
2022-12-17T15:16:19.721Z,-2.20
2022-12-17T15:18:46.413Z,-2.30
2022-12-17T15:21:13.383Z,-2.30
2022-12-17T15:23:43.926Z,-2.40
2022-12-17T15:26:11.941Z,-2.40
2022-12-17T15:28:42.879Z,-2.40
2022-12-17T15:31:11.570Z,-2.40
2022-12-17T15:33:38.774Z,-2.30
2022-12-17T15:36:06.170Z,-2.30
2022-12-17T15:38:33.189Z,-2.40
2022-12-17T15:41:00.703Z,-2.30
2022-12-17T15:43:27.414Z,-2.30
2022-12-17T15:45:54.186Z,-2.40
2022-12-17T15:48:23.321Z,-2.30
2022-12-17T15:50:50.125Z,-2.40
2022-12-17T15:53:17.015Z,-2.50
2022-12-17T15:55:43.717Z,-2.40
2022-12-17T15:58:14.032Z,-2.40
2022-12-17T16:00:40.906Z,-2.30
2022-12-17T16:03:07.826Z,-2.40
2022-12-17T16:05:34.611Z,-2.30
2022-12-17T16:08:02.764Z,-2.30
2022-12-17T16:10:29.876Z,-2.40
2022-12-17T16:12:56.612Z,-2.40
2022-12-17T16:15:23.348Z,-2.50
2022-12-17T16:17:50.036Z,-2.50
2022-12-17T16:20:17.001Z,-2.40
2022-12-17T16:22:44.439Z,-2.50
2022-12-17T16:27:42.741Z,-2.50
2022-12-17T16:30:11.415Z,-2.60
2022-12-17T16:32:38.716Z,-2.50
2022-12-17T16:35:06.317Z,-2.60
2022-12-17T16:37:33.057Z,-2.60
2022-12-17T16:40:00.324Z,-2.50
2022-12-17T16:42:28.016Z,-2.50
2022-12-17T16:44:54.785Z,-2.60
2022-12-17T16:47:21.648Z,-2.50
2022-12-17T16:49:50.916Z,-2.50
2022-12-17T16:52:17.667Z,-2.70
2022-12-17T16:54:44.515Z,-2.70
2022-12-17T16:57:11.245Z,-2.70
2022-12-17T16:59:38.018Z,-2.70
2022-12-17T17:02:04.907Z,-2.80
2022-12-17T17:04:31.787Z,-2.90
2022-12-17T17:06:58.629Z,-2.80
2022-12-17T17:09:25.768Z,-2.90
2022-12-17T17:11:56.420Z,-2.90
2022-12-17T17:14:24.072Z,-3.10
2022-12-17T17:16:51.416Z,-3.10
2022-12-17T17:19:19.623Z,-3.10
2022-12-17T17:21:54.431Z,-3.20
2022-12-17T17:24:24.083Z,-3.30
2022-12-17T17:26:51.996Z,-3.40
2022-12-17T17:29:19.679Z,-3.50
2022-12-17T17:32:09.094Z,-3.50
2022-12-17T17:34:36.091Z,-3.60
2022-12-17T17:37:02.876Z,-3.60
2022-12-17T17:39:33.330Z,-3.60
2022-12-17T17:42:00.499Z,-3.60
2022-12-17T17:44:27.380Z,-3.70
2022-12-17T17:46:54.195Z,-3.80
2022-12-17T17:49:20.985Z,-4.00
2022-12-17T17:54:34.616Z,-4.10
2022-12-17T17:57:01.330Z,-4.00
2022-12-17T17:59:33.371Z,-4.00
2022-12-17T18:02:02.336Z,-4.00
2022-12-17T18:04:29.321Z,-4.10
2022-12-17T18:09:42.889Z,-4.20
2022-12-17T18:12:28.329Z,-4.30
2022-12-17T18:15:13.861Z,-4.30
2022-12-17T18:17:41.716Z,-4.30
2022-12-17T18:20:09.760Z,-4.50
2022-12-17T18:22:36.997Z,-4.60
2022-12-17T18:27:32.293Z,-4.80
2022-12-17T18:29:58.983Z,-4.70
2022-12-17T18:32:25.776Z,-4.90
2022-12-17T18:34:52.481Z,-5.00
2022-12-17T18:37:19.174Z,-4.90
2022-12-17T18:39:46.030Z,-4.70
2022-12-17T18:42:31.676Z,-4.60
2022-12-17T18:44:58.432Z,-4.60
2022-12-17T18:47:25.685Z,-4.60
2022-12-17T18:49:52.562Z,-4.60
2022-12-17T18:52:19.564Z,-4.70
2022-12-17T18:54:46.331Z,-4.70
2022-12-17T18:57:13.195Z,-4.80
2022-12-17T18:59:40.972Z,-4.90
2022-12-17T19:02:12.403Z,-5.00
2022-12-17T19:04:39.581Z,-5.10
2022-12-17T19:07:06.463Z,-4.90
2022-12-17T19:09:38.445Z,-4.80
2022-12-17T19:12:06.745Z,-4.80
2022-12-17T19:14:34.278Z,-4.90
2022-12-17T19:17:01.726Z,-4.80
2022-12-17T19:19:28.696Z,-4.80
2022-12-17T19:21:56.055Z,-4.80
2022-12-17T19:24:23.602Z,-4.80
2022-12-17T19:26:51.767Z,-4.80
2022-12-17T19:29:20.481Z,-4.80
2022-12-17T19:31:47.531Z,-4.80
2022-12-17T19:34:16.683Z,-4.80
2022-12-17T19:36:43.949Z,-4.70
2022-12-17T19:39:16.424Z,-4.50
2022-12-17T19:41:43.910Z,-4.50
2022-12-17T19:44:15.732Z,-4.50
2022-12-17T19:46:43.635Z,-4.60
2022-12-17T19:49:13.219Z,-4.60
2022-12-17T19:51:42.931Z,-4.60
2022-12-17T19:54:12.397Z,-4.40
2022-12-17T19:56:39.391Z,-4.30
2022-12-17T19:59:08.040Z,-4.30
2022-12-17T20:01:37.774Z,-4.20
2022-12-17T20:04:05.754Z,-4.30
2022-12-17T20:06:34.544Z,-4.10
2022-12-17T20:09:02.403Z,-4.10
2022-12-17T20:11:36.123Z,-4.10
2022-12-17T20:14:15.246Z,-4.30
2022-12-17T20:16:56.418Z,-4.30
2022-12-17T20:19:31.127Z,-4.30
2022-12-17T20:22:02.996Z,-4.50
2022-12-17T20:24:31.885Z,-4.60
2022-12-17T20:26:59.542Z,-4.60
2022-12-17T20:29:26.278Z,-4.70
2022-12-17T20:31:53.768Z,-4.50
2022-12-17T20:34:20.791Z,-4.50
2022-12-17T20:36:47.674Z,-4.40
2022-12-17T20:39:14.541Z,-4.20
2022-12-17T20:41:41.899Z,-4.30
2022-12-17T20:44:12.166Z,-4.40
2022-12-17T20:46:41.208Z,-4.40
2022-12-17T20:49:08.341Z,-4.40
2022-12-17T20:51:35.279Z,-4.40
2022-12-17T20:54:04.078Z,-4.40
2022-12-17T20:56:33.771Z,-4.40
2022-12-17T20:59:04.071Z,-4.50
2022-12-17T21:01:32.987Z,-4.50
2022-12-17T21:04:00.800Z,-4.40
2022-12-17T21:06:32.426Z,-4.40
2022-12-17T21:08:59.484Z,-4.50
2022-12-17T21:11:28.438Z,-4.50
2022-12-17T21:13:55.702Z,-4.30
2022-12-17T21:16:26.036Z,-4.30
2022-12-17T21:18:53.646Z,-4.40
2022-12-17T21:21:23.779Z,-4.60
2022-12-17T21:23:50.857Z,-4.70
2022-12-17T21:26:20.991Z,-4.60
2022-12-17T21:28:50.266Z,-4.60
2022-12-17T21:31:44.725Z,-4.80
2022-12-17T21:34:14.282Z,-4.80
2022-12-17T21:36:41.088Z,-4.90
2022-12-17T21:39:09.817Z,-4.90
2022-12-17T21:41:42.325Z,-5.00
2022-12-17T21:44:12.998Z,-5.00
2022-12-17T21:46:40.761Z,-4.90
2022-12-17T21:49:07.551Z,-4.90
2022-12-17T21:51:34.499Z,-4.90
2022-12-17T21:54:08.691Z,-4.90
2022-12-17T21:56:35.801Z,-4.80
2022-12-17T21:59:02.547Z,-4.90
2022-12-17T22:01:32.570Z,-4.90
2022-12-17T22:04:01.412Z,-4.90
2022-12-17T22:06:31.791Z,-4.70
2022-12-17T22:09:03.845Z,-4.50
2022-12-17T22:11:35.955Z,-4.50
2022-12-17T22:14:08.190Z,-4.50
2022-12-17T22:16:42.310Z,-4.60
2022-12-17T22:19:11.020Z,-4.40
2022-12-17T22:21:40.790Z,-4.30
2022-12-17T22:24:07.885Z,-4.40
2022-12-17T22:26:34.828Z,-4.50
2022-12-17T22:29:01.604Z,-4.50
2022-12-17T22:31:47.021Z,-4.40
2022-12-17T22:35:17.122Z,-4.60
2022-12-17T22:39:09.753Z,-4.60
2022-12-17T22:44:29.053Z,-4.70
2022-12-17T22:44:38.491Z,-4.60
2022-12-17T22:45:41.364Z,-4.70
2022-12-17T22:48:09.978Z,-4.80
2022-12-17T22:50:43.364Z,-4.70
2022-12-17T22:53:22.405Z,-4.70
2022-12-17T22:55:50.083Z,-4.70
2022-12-17T22:58:18.148Z,-4.80
2022-12-17T23:00:45.196Z,-4.80
2022-12-17T23:03:12.052Z,-4.80
2022-12-17T23:05:38.827Z,-4.80
2022-12-17T23:08:05.698Z,-4.80
2022-12-17T23:10:32.476Z,-4.80
2022-12-17T23:12:59.219Z,-4.80
2022-12-17T23:15:36.870Z,-4.80
2022-12-17T23:18:06.712Z,-4.70
2022-12-17T23:20:34.920Z,-4.70
2022-12-17T23:23:01.888Z,-4.80
2022-12-17T23:25:29.534Z,-4.70
2022-12-17T23:27:56.306Z,-4.50
2022-12-17T23:30:23.009Z,-4.50
2022-12-17T23:32:49.737Z,-4.50
2022-12-17T23:35:16.680Z,-4.50
2022-12-17T23:37:43.351Z,-4.40
2022-12-17T23:40:11.374Z,-4.40
2022-12-17T23:42:38.672Z,-4.40
2022-12-17T23:45:07.150Z,-4.40
2022-12-17T23:47:33.899Z,-4.50
2022-12-17T23:50:00.708Z,-4.50
2022-12-17T23:52:27.482Z,-4.50
2022-12-17T23:54:54.243Z,-4.70
2022-12-17T23:57:20.938Z,-4.70
2022-12-17T23:59:47.596Z,-4.70
